Time;durP1;ratioP1;P1;durP2;ratioP2;P2;SDS_P1;SDS_P2;PMS_P1;PMS_P2;Temp;Humidity;BMP_temperature;BMP_pressure;BME280_temperature;BME280_humidity;BME280_pressure;Samples;Min_cycle;Max_cycle;Signal;HPM_P1;HPM_P2
2023/01/09 00:01:56;;;;;;;5.53;0.90;;;;;;;14.79;50.79;99384.13;5133705;27;20051;-67
2023/01/09 00:04:21;;;;;;;4.63;1.03;;;;;;;14.51;50.80;99385.50;5132300;28;20023;-68
2023/01/09 00:06:52;;;;;;;3.50;1.67;;;;;;;14.72;51.51;99379.16;5109391;28;20027;-67
2023/01/09 00:09:19;;;;;;;3.90;1.13;;;;;;;14.79;50.43;99379.72;5092280;28;20043;-67
2023/01/09 00:11:45;;;;;;;5.30;1.07;;;;;;;14.84;50.55;99376.88;5110796;28;20842;-67
2023/01/09 00:14:10;;;;;;;6.00;1.87;;;;;;;15.10;49.46;99384.25;5094565;28;20027;-67
2023/01/09 00:16:36;;;;;;;6.53;1.00;;;;;;;14.24;50.90;99393.78;5111504;28;20031;-67
2023/01/09 00:19:01;;;;;;;5.80;1.00;;;;;;;14.72;50.98;99389.69;5099569;28;20113;-68
2023/01/09 00:21:27;;;;;;;3.70;1.07;;;;;;;15.20;48.99;99389.06;5110519;28;20110;-67
2023/01/09 00:23:54;;;;;;;3.10;1.27;;;;;;;15.33;48.71;99391.88;5093918;28;20104;-68
2023/01/09 00:26:20;;;;;;;2.60;1.00;;;;;;;14.91;49.12;99394.03;5112008;28;20027;-67
2023/01/09 00:28:47;;;;;;;4.50;2.30;;;;;;;14.50;50.48;99383.78;5091203;28;20030;-67
2023/01/09 00:31:13;;;;;;;5.93;1.30;;;;;;;15.21;49.65;99390.75;5109664;28;20024;-67
2023/01/09 00:33:41;;;;;;;6.83;1.03;;;;;;;15.39;48.22;99389.78;5117250;28;20500;-67
2023/01/09 00:36:07;;;;;;;4.37;1.30;;;;;;;14.50;49.77;99394.28;5128538;28;20023;-67
2023/01/09 00:38:33;;;;;;;4.33;1.30;;;;;;;15.28;48.47;99381.59;5121611;28;20038;-67
2023/01/09 00:40:59;;;;;;;3.23;1.20;;;;;;;14.90;49.19;99387.06;5091021;28;20027;-68
2023/01/09 00:43:31;;;;;;;5.47;1.13;;;;;;;14.20;51.37;99384.34;5111056;28;20028;-67
2023/01/09 00:45:59;;;;;;;4.75;1.33;;;;;;;14.28;50.16;99378.72;5111516;28;20505;-67
2023/01/09 00:48:26;;;;;;;5.43;1.33;;;;;;;14.57;50.66;99382.53;5100324;28;20134;-67
2023/01/09 00:50:58;;;;;;;7.50;1.30;;;;;;;15.06;48.82;99374.00;5114129;28;20534;-67
2023/01/09 00:53:28;;;;;;;5.05;1.70;;;;;;;15.09;48.42;99379.94;5089799;28;20031;-67
2023/01/09 00:55:56;;;;;;;5.60;1.83;;;;;;;14.62;50.10;99393.69;5111999;28;20034;-67
2023/01/09 00:58:22;;;;;;;1.93;1.30;;;;;;;15.07;49.47;99383.56;5132212;28;20038;-67
2023/01/09 01:00:48;;;;;;;3.43;1.20;;;;;;;14.39;50.40;99385.13;5110765;28;20445;-67
2023/01/09 01:03:13;;;;;;;2.53;1.23;;;;;;;14.98;49.04;99384.06;5060955;28;1140969;-68
2023/01/09 01:08:22;;;;;;;7.40;1.87;;;;;;;13.92;51.99;99393.53;5111173;28;20126;-67
2023/01/09 01:10:48;;;;;;;7.00;1.67;;;;;;;14.27;51.75;99396.25;5094236;28;20027;-67
2023/01/09 01:13:14;;;;;;;4.10;1.43;;;;;;;14.25;50.59;99379.72;5111913;28;20069;-67
2023/01/09 01:15:42;;;;;;;6.43;1.80;;;;;;;14.04;52.20;99382.44;5098292;27;20071;-67
2023/01/09 01:18:09;;;;;;;4.10;1.50;;;;;;;13.16;55.00;99388.16;5098386;28;20031;-67
2023/01/09 01:20:35;;;;;;;4.40;1.80;;;;;;;14.14;51.60;99387.28;5092774;28;20034;-67
2023/01/09 01:23:00;;;;;;;4.93;1.67;;;;;;;12.87;55.37;99392.88;5093908;28;20031;-67
2023/01/09 01:25:26;;;;;;;5.67;1.80;;;;;;;14.03;52.07;99391.25;5093985;28;20471;-67
2023/01/09 01:27:51;;;;;;;3.67;1.33;;;;;;;13.05;53.83;99399.09;5091554;28;20023;-67
2023/01/09 01:30:17;;;;;;;3.80;1.77;;;;;;;13.75;53.03;99391.66;5102878;27;20060;-67
2023/01/09 01:32:43;;;;;;;9.27;2.07;;;;;;;13.81;54.71;99395.81;5133102;27;20023;-67
2023/01/09 01:35:09;;;;;;;5.07;2.50;;;;;;;14.49;51.76;99389.97;5132366;27;20486;-67
2023/01/09 01:37:36;;;;;;;6.17;2.20;;;;;;;13.94;53.61;99407.44;5104581;28;20035;-68
2023/01/09 01:40:02;;;;;;;5.43;1.80;;;;;;;14.50;52.57;99394.28;5110668;28;20027;-67
2023/01/09 01:42:28;;;;;;;6.67;2.10;;;;;;;13.28;55.80;99392.88;5092133;28;20046;-68
2023/01/09 01:45:02;;;;;;;4.33;1.77;;;;;;;14.85;51.47;99392.56;5104054;27;20466;-68
2023/01/09 01:47:40;;;;;;;8.03;2.20;;;;;;;14.38;51.87;99390.47;5108223;28;20475;-67
2023/01/09 01:50:23;;;;;;;12.80;1.83;;;;;;;15.18;51.03;99377.75;5108625;28;20034;-69
2023/01/09 01:53:14;;;;;;;9.60;2.20;;;;;;;14.36;51.97;99387.94;5098881;27;20019;-69
2023/01/09 01:55:44;;;;;;;5.83;2.90;;;;;;;14.88;50.03;99391.56;5123115;27;20038;-69
2023/01/09 01:58:14;;;;;;;8.17;1.90;;;;;;;13.98;51.72;99398.47;5121476;27;20076;-69
2023/01/09 02:00:43;;;;;;;4.87;2.03;;;;;;;13.80;53.34;99399.34;5133054;27;20027;-69
2023/01/09 02:03:11;;;;;;;5.47;2.60;;;;;;;13.95;52.62;99385.50;5122444;27;20039;-69
2023/01/09 02:05:38;;;;;;;6.57;2.77;;;;;;;13.56;53.18;99389.06;5093627;28;20064;-70
2023/01/09 02:08:05;;;;;;;4.93;2.07;;;;;;;13.50;54.22;99391.94;5101364;27;20031;-69
2023/01/09 02:10:31;;;;;;;9.87;2.60;;;;;;;14.38;51.83;99396.59;5103280;28;20057;-69
2023/01/09 02:12:56;;;;;;;13.60;4.20;;;;;;;13.96;52.09;99400.34;5091544;28;20481;-69
2023/01/09 02:15:22;;;;;;;5.30;2.73;;;;;;;13.95;52.22;99393.38;5092936;28;20112;-69
2023/01/09 02:18:11;;;;;;;9.20;3.17;;;;;;;14.02;52.14;99394.78;5091021;28;20039;-67
2023/01/09 02:20:51;;;;;;;10.87;3.57;;;;;;;13.95;51.63;99396.00;5093399;28;20487;-67
2023/01/09 02:23:38;;;;;;;7.13;3.40;;;;;;;14.68;50.20;99400.44;5117521;27;20471;-67
2023/01/09 02:26:33;;;;;;;8.80;3.60;;;;;;;14.45;50.84;99404.19;5100151;27;20027;-67
2023/01/09 02:29:27;;;;;;;14.37;3.27;;;;;;;14.92;49.11;99406.28;5102910;28;20482;-67
2023/01/09 02:32:10;;;;;;;9.37;3.70;;;;;;;14.28;50.95;99405.84;5110547;28;20032;-67
2023/01/09 02:34:44;;;;;;;11.15;3.80;;;;;;;13.12;54.01;99408.44;5092115;28;20051;-67
2023/01/09 02:37:20;;;;;;;10.97;3.70;;;;;;;14.22;51.20;99409.63;5092424;28;20032;-68
2023/01/09 02:39:55;;;;;;;10.23;3.77;;;;;;;14.54;50.55;99406.38;5110165;27;20047;-67
2023/01/09 02:42:23;;;;;;;6.13;3.47;;;;;;;14.52;50.74;99397.69;5125884;27;20072;-67
2023/01/09 02:44:48;;;;;;;7.80;3.67;;;;;;;14.45;50.48;99401.56;5093145;28;20106;-67
2023/01/09 02:47:14;;;;;;;7.90;3.33;;;;;;;14.67;49.87;99394.34;5110941;28;20129;-67
2023/01/09 02:49:42;;;;;;;6.87;3.30;;;;;;;14.63;49.24;99395.44;5093199;28;20066;-67
2023/01/09 02:52:32;;;;;;;8.97;3.13;;;;;;;13.82;51.83;99393.13;5092302;28;20172;-68
2023/01/09 02:55:29;;;;;;;11.03;3.03;;;;;;;13.79;51.95;99397.66;5098380;28;20023;-69
2023/01/09 02:58:19;;;;;;;7.47;2.80;;;;;;;13.48;53.98;99404.31;5105871;28;20106;-67
2023/01/09 03:01:13;;;;;;;10.70;3.57;;;;;;;12.88;55.60;99402.47;5112681;28;20022;-67
2023/01/09 03:04:09;;;;;;;12.47;3.90;;;;;;;13.44;53.63;99402.72;5113037;28;20066;-67
2023/01/09 03:06:57;;;;;;;9.70;3.17;;;;;;;13.37;53.83;99403.00;5079958;28;20028;-67
2023/01/09 03:09:27;;;;;;;11.80;2.93;;;;;;;13.63;53.59;99398.34;5109866;28;20028;-67
2023/01/09 03:12:06;;;;;;;7.37;3.50;;;;;;;14.01;51.58;99393.13;5091585;28;20390;-67
2023/01/09 03:14:34;;;;;;;8.07;2.73;;;;;;;13.42;52.69;99386.19;5092159;28;20088;-67
2023/01/09 03:17:05;;;;;;;8.37;2.53;;;;;;;13.42;53.03;99388.81;5092475;28;20020;-67
2023/01/09 03:19:33;;;;;;;7.80;2.87;;;;;;;13.18;53.20;99392.41;5114950;28;20549;-67
2023/01/09 03:21:59;;;;;;;10.73;2.90;;;;;;;13.75;52.76;99386.41;5107112;28;20028;-67
2023/01/09 03:24:24;;;;;;;4.93;2.53;;;;;;;13.53;51.74;99381.31;5087123;28;20039;-67
2023/01/09 03:26:50;;;;;;;8.10;2.40;;;;;;;13.40;52.55;99381.84;5106277;28;20370;-67
2023/01/09 03:29:15;;;;;;;6.73;2.43;;;;;;;13.32;52.71;99373.44;5109619;28;20036;-67
2023/01/09 03:31:41;;;;;;;6.73;2.33;;;;;;;13.53;52.67;99370.81;5109534;28;20035;-67
2023/01/09 03:34:06;;;;;;;9.93;2.30;;;;;;;13.19;53.00;99374.94;5089501;28;20028;-67
2023/01/09 03:36:32;;;;;;;9.57;2.50;;;;;;;13.19;53.21;99367.06;5088071;28;20063;-67
2023/01/09 03:38:57;;;;;;;8.97;1.97;;;;;;;12.69;54.29;99358.69;5099901;28;20031;-67
2023/01/09 03:41:22;;;;;;;9.97;2.87;;;;;;;12.37;55.81;99373.94;5091258;28;20016;-67
2023/01/09 03:43:48;;;;;;;7.87;2.20;;;;;;;12.60;55.80;99373.91;5092098;28;20065;-67
2023/01/09 03:46:15;;;;;;;11.97;2.80;;;;;;;13.21;53.73;99383.56;5108414;28;20103;-67
2023/01/09 03:48:41;;;;;;;8.33;2.80;;;;;;;13.46;52.62;99375.47;5110073;28;20482;-67
2023/01/09 03:51:06;;;;;;;7.33;2.53;;;;;;;13.42;53.08;99386.19;5089090;28;20053;-67
2023/01/09 03:53:31;;;;;;;8.03;2.27;;;;;;;13.19;53.41;99388.88;5102787;28;20051;-67
2023/01/09 03:55:57;;;;;;;13.50;3.20;;;;;;;12.82;55.55;99385.22;5111195;28;20402;-67
2023/01/09 03:58:24;;;;;;;7.33;2.60;;;;;;;13.26;54.58;99386.84;5113654;28;20058;-67
2023/01/09 04:00:51;;;;;;;12.37;2.83;;;;;;;13.59;53.67;99381.03;5095626;28;20031;-67
2023/01/09 04:03:18;;;;;;;6.70;2.60;;;;;;;13.73;53.29;99373.38;5093547;28;20051;-67
2023/01/09 04:05:45;;;;;;;7.93;2.47;;;;;;;13.90;52.32;99384.84;5094594;28;20117;-68
2023/01/09 04:08:10;;;;;;;7.23;2.50;;;;;;;12.94;54.65;99388.22;5109139;28;20471;-68
2023/01/09 04:10:35;;;;;;;6.23;2.57;;;;;;;12.76;55.88;99384.63;5095003;28;20057;-67
2023/01/09 04:13:01;;;;;;;9.90;2.67;;;;;;;12.82;56.17;99387.00;5095016;28;20073;-67
2023/01/09 04:15:26;;;;;;;8.30;2.57;;;;;;;12.98;57.04;99377.56;5096214;28;20028;-67
2023/01/09 04:17:51;;;;;;;9.60;2.63;;;;;;;13.83;54.19;99370.31;5108069;27;20505;-67
2023/01/09 04:20:17;;;;;;;9.90;2.60;;;;;;;13.92;52.71;99364.63;5113718;27;20027;-67
2023/01/09 04:22:43;;;;;;;5.87;2.30;;;;;;;13.11;55.49;99364.75;5133845;27;20470;-67
2023/01/09 04:25:10;;;;;;;6.50;2.20;;;;;;;12.87;56.42;99361.41;5115812;27;20106;-67
2023/01/09 04:27:35;;;;;;;8.53;2.50;;;;;;;13.94;53.55;99361.94;5118791;27;20497;-67
2023/01/09 04:30:00;;;;;;;7.77;2.90;;;;;;;14.59;52.27;99349.16;5111338;28;20036;-68
2023/01/09 04:32:26;;;;;;;11.03;2.60;;;;;;;13.49;53.74;99353.50;5095405;28;20020;-67
2023/01/09 04:34:53;;;;;;;7.17;2.77;;;;;;;14.08;52.70;99352.47;5110494;27;20031;-67
2023/01/09 04:37:18;;;;;;;10.87;3.03;;;;;;;13.38;54.35;99356.59;5106239;28;20110;-67
2023/01/09 04:39:44;;;;;;;14.23;3.33;;;;;;;13.66;53.42;99353.56;5093080;28;20519;-67
2023/01/09 04:42:10;;;;;;;10.93;3.00;;;;;;;13.63;53.19;99339.72;5095343;28;20069;-67
2023/01/09 04:44:36;;;;;;;13.83;3.00;;;;;;;13.07;54.96;99347.44;5116060;27;20027;-67
2023/01/09 04:47:01;;;;;;;10.87;3.30;;;;;;;13.53;53.94;99347.19;5093493;28;20111;-67
2023/01/09 04:49:27;;;;;;;12.83;3.00;;;;;;;13.43;54.99;99354.63;5093163;27;20023;-67
2023/01/09 04:51:52;;;;;;;10.70;2.67;;;;;;;14.35;52.04;99357.31;5114651;27;20031;-67
2023/01/09 04:54:18;;;;;;;10.67;3.33;;;;;;;13.18;54.37;99360.09;5115183;27;20026;-67
2023/01/09 04:56:43;;;;;;;5.90;3.30;;;;;;;13.80;52.51;99349.47;5115464;27;20034;-67
2023/01/09 04:59:09;;;;;;;14.30;3.27;;;;;;;13.76;53.21;99347.91;5113441;27;20031;-67
2023/01/09 05:01:34;;;;;;;11.63;3.07;;;;;;;14.00;52.52;99346.75;5111289;28;20059;-68
2023/01/09 05:04:00;;;;;;;13.43;3.70;;;;;;;15.41;49.40;99330.03;5110170;27;20049;-67
2023/01/09 05:06:26;;;;;;;8.80;3.57;;;;;;;15.41;48.13;99330.03;5131839;27;20106;-68
2023/01/09 05:08:51;;;;;;;6.03;2.83;;;;;;;15.28;49.39;99334.22;5115343;27;20027;-67
2023/01/09 05:11:17;;;;;;;11.30;2.83;;;;;;;14.18;51.46;99329.22;5103193;27;20034;-67
2023/01/09 05:13:42;;;;;;;9.77;3.13;;;;;;;14.51;51.60;99333.75;5090419;28;20038;-67
2023/01/09 05:16:08;;;;;;;7.30;2.80;;;;;;;14.69;50.52;99324.09;5094257;28;20027;-67
2023/01/09 05:18:33;;;;;;;8.63;3.17;;;;;;;14.62;51.28;99330.59;5104114;27;20061;-67
2023/01/09 05:20:59;;;;;;;6.40;2.40;;;;;;;14.40;52.15;99323.75;5132978;27;20099;-67
2023/01/09 05:23:24;;;;;;;15.37;2.97;;;;;;;14.93;50.94;99329.03;5128261;27;20461;-68
2023/01/09 05:25:50;;;;;;;7.30;2.87;;;;;;;14.10;53.33;99322.66;5094719;28;20030;-67
2023/01/09 05:28:15;;;;;;;10.47;3.07;;;;;;;13.79;53.98;99332.00;5109931;27;20096;-68
2023/01/09 05:30:41;;;;;;;10.97;2.87;;;;;;;13.97;53.69;99320.63;5112738;28;20024;-69
2023/01/09 05:33:06;;;;;;;15.33;5.77;;;;;;;14.08;53.50;99313.06;5128313;27;20404;-68
2023/01/09 05:35:32;;;;;;;8.90;3.50;;;;;;;13.64;54.36;99316.06;5114126;27;20058;-68
2023/01/09 05:37:57;;;;;;;7.27;2.70;;;;;;;12.98;56.62;99322.50;5111415;27;20023;-67
2023/01/09 05:40:22;;;;;;;7.90;2.83;;;;;;;13.70;55.82;99315.75;5092086;28;20027;-68
2023/01/09 05:42:48;;;;;;;9.50;2.67;;;;;;;14.18;54.21;99315.25;5093403;28;20138;-67
2023/01/09 05:45:13;;;;;;;12.80;3.10;;;;;;;13.70;55.73;99315.75;5117320;27;20031;-68
2023/01/09 05:47:39;;;;;;;12.83;3.40;;;;;;;12.81;59.26;99314.50;5132656;27;20496;-68
2023/01/09 05:50:05;;;;;;;11.70;3.00;;;;;;;13.72;56.93;99313.91;5112817;27;20046;-68
2023/01/09 05:52:31;;;;;;;9.03;2.63;;;;;;;14.08;56.19;99309.56;5093134;28;20038;-67
2023/01/09 05:54:56;;;;;;;11.40;2.67;;;;;;;13.03;57.91;99315.25;5092466;27;20055;-67
2023/01/09 05:57:22;;;;;;;7.80;3.10;;;;;;;14.34;55.00;99313.56;5102241;28;20122;-67
2023/01/09 05:59:47;;;;;;;7.70;2.93;;;;;;;14.12;54.55;99305.03;5093586;28;20038;-67
2023/01/09 06:02:12;;;;;;;10.03;2.73;;;;;;;13.36;56.65;99316.47;5078093;28;20051;-68
2023/01/09 06:04:38;;;;;;;11.73;2.93;;;;;;;13.46;58.29;99311.63;5090483;28;20035;-67
2023/01/09 06:07:04;;;;;;;8.10;2.70;;;;;;;12.75;60.88;99309.50;5091742;28;20032;-68
2023/01/09 06:09:30;;;;;;;9.07;2.33;;;;;;;13.95;56.20;99301.44;5095915;28;20034;-68
2023/01/09 06:11:55;;;;;;;11.97;3.20;;;;;;;13.50;58.04;99307.94;5110597;28;20031;-68
2023/01/09 06:14:22;;;;;;;8.37;2.70;;;;;;;13.36;57.29;99306.81;5102262;28;20038;-68
2023/01/09 06:16:47;;;;;;;11.57;3.00;;;;;;;14.27;56.26;99301.63;5091725;28;20059;-68
2023/01/09 06:19:12;;;;;;;10.40;3.17;;;;;;;13.58;57.08;99309.28;5121273;27;20087;-70
2023/01/09 06:21:38;;;;;;;6.13;2.90;;;;;;;13.80;57.01;99299.56;5110921;28;20122;-68
2023/01/09 06:24:04;;;;;;;8.07;3.93;;;;;;;14.16;57.35;99302.16;5111285;28;20128;-68
2023/01/09 06:26:29;;;;;;;8.30;2.63;;;;;;;13.63;58.65;99309.09;5110450;28;20097;-68
2023/01/09 06:28:55;;;;;;;14.50;3.10;;;;;;;14.04;56.85;99303.63;5111622;28;20106;-67
2023/01/09 06:31:24;;;;;;;6.37;3.00;;;;;;;13.67;58.75;99315.03;5110050;28;20391;-68
2023/01/09 06:33:50;;;;;;;8.17;2.77;;;;;;;13.80;58.24;99300.41;5113789;27;20463;-68
2023/01/09 06:36:15;;;;;;;14.93;3.70;;;;;;;13.42;60.67;99303.03;5092770;28;20027;-68
2023/01/09 06:38:41;;;;;;;10.27;2.70;;;;;;;12.43;63.72;99309.09;5092940;28;20035;-68
2023/01/09 06:41:06;;;;;;;8.23;2.97;;;;;;;14.12;58.23;99305.03;5090907;28;20035;-68
2023/01/09 06:43:32;;;;;;;9.63;3.00;;;;;;;13.50;60.58;99298.28;5098286;28;20042;-68
2023/01/09 06:45:57;;;;;;;8.67;2.63;;;;;;;13.82;59.22;99309.06;5113239;27;20383;-68
2023/01/09 06:48:25;;;;;;;8.53;2.97;;;;;;;13.02;61.24;99303.06;5106689;28;20031;-68
2023/01/09 06:50:52;;;;;;;9.07;2.93;;;;;;;12.59;61.78;99294.44;5091985;27;20435;-68
2023/01/09 06:53:17;;;;;;;7.77;2.60;;;;;;;13.73;59.96;99315.59;5116859;27;20085;-68
2023/01/09 06:55:44;;;;;;;12.63;2.80;;;;;;;13.59;59.46;99323.28;5089724;28;20417;-68
2023/01/09 06:58:09;;;;;;;9.80;2.53;;;;;;;13.58;58.73;99321.56;5099297;28;20055;-68
2023/01/09 07:00:35;;;;;;;10.57;2.67;;;;;;;13.97;59.41;99325.00;5089418;28;20055;-68
2023/01/09 07:03:01;;;;;;;8.80;2.50;;;;;;;13.92;58.85;99327.88;5092038;28;20052;-68
2023/01/09 07:05:26;;;;;;;9.03;2.73;;;;;;;14.12;59.61;99310.28;5091382;28;20035;-68
2023/01/09 07:07:52;;;;;;;5.93;2.20;;;;;;;13.95;59.42;99335.59;5112887;28;20110;-68
2023/01/09 07:10:18;;;;;;;5.43;2.40;;;;;;;14.48;58.51;99333.91;5109586;28;20372;-68
2023/01/09 07:12:43;;;;;;;4.83;2.40;;;;;;;14.50;57.47;99336.47;5109459;28;20156;-68
2023/01/09 07:15:09;;;;;;;4.93;1.90;;;;;;;14.23;57.24;99334.25;5125459;28;20479;-68
2023/01/09 07:17:35;;;;;;;6.07;2.27;;;;;;;14.63;56.67;99340.22;5102569;28;20030;-68
2023/01/09 07:20:00;;;;;;;8.73;2.77;;;;;;;14.97;55.37;99346.34;5093859;28;20024;-68
2023/01/09 07:22:26;;;;;;;9.27;3.07;;;;;;;14.38;57.54;99349.28;5091133;28;20523;-68
2023/01/09 07:24:52;;;;;;;12.50;2.03;;;;;;;14.45;57.23;99360.31;5095675;28;20051;-68
2023/01/09 07:27:17;;;;;;;9.10;3.67;;;;;;;14.63;57.42;99373.53;5088637;28;20030;-68
2023/01/09 07:29:42;;;;;;;9.37;3.63;;;;;;;14.71;55.96;99372.22;5094308;28;20114;-68
2023/01/09 07:32:08;;;;;;;12.93;2.90;;;;;;;14.73;55.32;99378.25;5095550;28;20371;-68
2023/01/09 07:34:33;;;;;;;16.90;2.73;;;;;;;14.51;56.87;99401.25;5114946;27;20106;-69
2023/01/09 07:36:58;;;;;;;8.63;1.63;;;;;;;13.98;59.82;99393.22;5099000;28;20072;-68
2023/01/09 07:39:24;;;;;;;7.07;1.77;;;;;;;14.25;58.38;99411.25;5098996;28;20072;-68
2023/01/09 07:41:49;;;;;;;8.77;1.83;;;;;;;15.35;54.16;99409.31;5095221;28;20019;-68
2023/01/09 07:44:15;;;;;;;9.20;1.70;;;;;;;15.12;55.45;99417.56;5112327;28;20093;-68
2023/01/09 07:46:40;;;;;;;6.50;1.47;;;;;;;14.79;55.86;99426.22;5121682;27;20098;-68
2023/01/09 07:49:06;;;;;;;3.87;0.80;;;;;;;14.73;56.13;99441.38;5119587;27;20427;-68
2023/01/09 07:51:31;;;;;;;7.03;1.10;;;;;;;14.83;56.11;99438.28;5103455;28;20027;-68
2023/01/09 07:53:57;;;;;;;9.87;1.20;;;;;;;14.80;56.98;99451.59;5110286;28;20039;-69
2023/01/09 07:56:22;;;;;;;7.67;1.43;;;;;;;15.61;53.08;99443.94;5099213;27;20441;-68
2023/01/09 07:58:48;;;;;;;6.60;1.53;;;;;;;15.53;53.73;99451.41;5089014;28;20073;-69
2023/01/09 08:01:14;;;;;;;5.00;1.30;;;;;;;14.11;58.48;99466.22;5102385;27;20035;-69
2023/01/09 08:03:39;;;;;;;5.60;0.90;;;;;;;14.17;60.56;99465.94;5118347;27;20214;-69
2023/01/09 08:06:05;;;;;;;4.83;1.00;;;;;;;14.59;58.32;99475.38;5094216;28;20020;-68
2023/01/09 08:08:30;;;;;;;2.33;0.80;;;;;;;14.53;57.60;99478.28;5108849;27;20039;-68
2023/01/09 08:10:56;;;;;;;10.73;1.07;;;;;;;13.93;59.89;99496.81;5111435;28;20055;-68
2023/01/09 08:13:21;;;;;;;4.87;1.17;;;;;;;14.85;57.13;99494.28;5104433;27;20035;-69
2023/01/09 08:15:46;;;;;;;5.43;1.57;;;;;;;14.66;57.14;99496.97;5093241;28;20118;-69
2023/01/09 08:18:12;;;;;;;5.90;0.80;;;;;;;13.55;58.80;99510.72;5100292;27;20031;-69
2023/01/09 08:20:37;;;;;;;11.13;1.30;;;;;;;13.53;62.75;99517.81;5099669;28;20502;-68
2023/01/09 08:23:03;;;;;;;6.30;1.40;;;;;;;15.00;55.75;99519.00;5097258;28;20056;-69
2023/01/09 08:25:28;;;;;;;7.60;3.10;;;;;;;14.29;58.05;99517.94;5109000;27;20023;-69
2023/01/09 08:27:53;;;;;;;12.40;1.50;;;;;;;13.62;62.04;99527.91;5089640;28;20031;-68
2023/01/09 08:30:19;;;;;;;9.40;1.27;;;;;;;14.97;56.59;99530.53;5122164;27;20128;-68
2023/01/09 08:32:50;;;;;;;14.33;1.63;;;;;;;14.30;58.63;99534.56;5116884;27;20027;-68
2023/01/09 08:35:15;;;;;;;8.33;1.20;;;;;;;14.72;56.35;99542.22;5111372;28;20023;-68
2023/01/09 08:37:45;;;;;;;6.23;1.10;;;;;;;14.29;58.03;99548.59;5110657;28;20494;-68
2023/01/09 08:40:12;;;;;;;9.03;1.27;;;;;;;14.41;59.52;99558.56;5099608;28;20028;-68
2023/01/09 08:48:06;;;;;;;7.77;1.67;;;;;;;14.61;58.23;99564.69;5108736;27;20532;-69
2023/01/09 08:50:31;;;;;;;6.63;1.47;;;;;;;14.57;57.44;99569.22;5093292;28;20050;-69
2023/01/09 08:52:57;;;;;;;16.73;2.17;;;;;;;14.16;60.24;99572.81;5117815;27;20509;-69
2023/01/09 08:55:22;;;;;;;16.10;2.87;;;;;;;15.07;57.70;99584.41;5117528;27;20058;-69
2023/01/09 08:57:52;;;;;;;11.30;2.27;;;;;;;14.85;56.00;99591.63;5097761;28;20027;-69
2023/01/09 09:00:21;;;;;;;12.80;2.40;;;;;;;15.80;53.90;99595.78;5093016;28;20610;-69
2023/01/09 09:02:51;;;;;;;16.03;2.60;;;;;;;13.77;59.32;99610.44;5092497;27;20089;-69
2023/01/09 09:05:16;;;;;;;12.00;2.40;;;;;;;14.36;57.14;99603.47;5105007;28;20033;-69
2023/01/09 09:07:42;;;;;;;19.30;3.80;;;;;;;15.19;54.35;99630.31;5112922;27;20110;-69
2023/01/09 09:10:08;;;;;;;9.77;1.53;;;;;;;13.26;59.13;99633.50;5109751;28;20062;-69
2023/01/09 09:12:33;;;;;;;9.60;1.50;;;;;;;13.97;57.88;99627.97;5080591;28;20027;-69
2023/01/09 09:15:11;;;;;;;9.90;2.00;;;;;;;15.53;53.79;99620.78;5092062;27;20076;-69
2023/01/09 09:17:37;;;;;;;24.00;2.17;;;;;;;15.76;53.57;99631.97;5105705;28;20460;-69
2023/01/09 09:20:02;;;;;;;10.70;2.30;;;;;;;15.24;53.07;99640.66;5093808;28;20484;-69
2023/01/09 09:22:28;;;;;;;10.10;1.80;;;;;;;14.67;56.17;99643.31;5110762;28;20039;-69
2023/01/09 09:24:53;;;;;;;12.33;2.40;;;;;;;14.03;59.69;99664.47;5101431;27;20118;-69
2023/01/09 09:27:19;;;;;;;13.40;1.90;;;;;;;14.46;57.78;99660.91;5112770;27;20158;-69
2023/01/09 09:29:44;;;;;;;11.17;2.57;;;;;;;15.46;54.03;99658.88;5111187;27;20082;-69
2023/01/09 09:32:10;;;;;;;12.00;2.23;;;;;;;15.64;54.76;99667.66;5090917;28;20028;-69
2023/01/09 09:34:35;;;;;;;14.03;1.97;;;;;;;16.50;52.37;99674.75;5092324;28;20031;-69
2023/01/09 09:37:01;;;;;;;15.30;2.33;;;;;;;14.89;54.77;99672.97;5092923;28;20038;-69
2023/01/09 09:39:26;;;;;;;12.53;2.20;;;;;;;14.56;55.26;99678.81;5090634;28;20064;-69
2023/01/09 09:45:15;;;;;;;11.80;1.63;;;;;;;14.68;55.33;99684.47;5099355;28;20071;-69
2023/01/09 09:48:06;;;;;;;5.50;1.40;;;;;;;15.73;52.47;99683.03;5091414;28;20549;-68
2023/01/09 09:51:02;;;;;;;10.63;1.60;;;;;;;15.29;52.86;99688.69;5091327;28;20582;-68
2023/01/09 09:53:39;;;;;;;10.80;2.33;;;;;;;14.94;53.47;99696.44;5079817;28;20027;-68
2023/01/09 09:56:04;;;;;;;10.37;1.80;;;;;;;14.82;53.51;99711.00;5099050;27;20808;-68
2023/01/09 09:58:39;;;;;;;11.57;1.43;;;;;;;15.40;52.20;99711.84;5094586;28;20035;-67
2023/01/09 10:01:06;;;;;;;10.50;1.70;;;;;;;15.49;52.29;99726.34;5110368;28;20032;-67
2023/01/09 10:03:37;;;;;;;7.07;1.87;;;;;;;14.93;52.67;99749.97;5103967;27;20121;-67
2023/01/09 10:06:18;;;;;;;6.37;1.43;;;;;;;14.40;56.49;99746.16;5120807;27;20454;-68
2023/01/09 10:09:20;;;;;;;12.17;1.93;;;;;;;14.05;58.05;99754.59;5107914;28;20027;-68
2023/01/09 10:12:29;;;;;;;10.93;1.80;;;;;;;14.34;57.42;99763.03;5109325;28;20067;-67
2023/01/09 10:14:57;;;;;;;12.23;2.20;;;;;;;14.92;54.88;99758.81;5058599;28;20035;-68
2023/01/09 10:18:01;;;;;;;10.80;1.63;;;;;;;15.28;54.10;99771.19;5092000;28;20044;-68
2023/01/09 10:20:53;;;;;;;9.03;1.90;;;;;;;14.58;56.70;99781.31;5104336;28;20042;-67
2023/01/09 10:23:38;;;;;;;8.57;1.60;;;;;;;16.01;52.54;99776.53;5089740;28;20428;-68
2023/01/09 10:26:31;;;;;;;9.97;1.97;;;;;;;15.04;54.91;99779.31;5103167;27;20121;-67
2023/01/09 10:29:03;;;;;;;6.80;1.70;;;;;;;15.48;52.36;99787.84;5089966;27;20398;-68
2023/01/09 10:31:53;;;;;;;15.10;2.43;;;;;;;16.49;49.93;99791.75;5096618;28;20035;-67
2023/01/09 10:34:33;;;;;;;14.20;2.20;;;;;;;15.51;53.08;99795.59;5083250;28;20035;-67
2023/01/09 10:37:21;;;;;;;9.47;2.13;;;;;;;14.32;55.70;99816.59;5108203;28;20028;-67
2023/01/09 10:39:56;;;;;;;8.17;1.43;;;;;;;14.08;54.88;99814.03;5109673;27;20019;-67
2023/01/09 10:42:32;;;;;;;13.10;1.77;;;;;;;13.95;56.66;99818.94;5100061;28;20020;-67
2023/01/09 10:45:20;;;;;;;12.17;1.80;;;;;;;14.90;53.41;99824.63;5090564;28;20031;-67
2023/01/09 10:47:47;;;;;;;9.17;1.70;;;;;;;14.45;54.04;99828.28;5092384;28;20027;-67
2023/01/09 10:50:25;;;;;;;16.93;2.27;;;;;;;15.89;51.59;99814.03;5106315;28;20031;-67
2023/01/09 10:52:54;;;;;;;9.43;1.90;;;;;;;14.63;54.41;99825.84;5090561;28;20068;-67
2023/01/09 10:55:35;;;;;;;14.23;2.33;;;;;;;16.70;48.57;99824.94;5096850;28;20022;-68
2023/01/09 10:58:08;;;;;;;18.57;3.77;;;;;;;15.03;51.67;99845.13;5116219;28;20115;-67
2023/01/09 11:00:33;;;;;;;23.02;2.65;;;;;;;15.27;52.98;99837.94;5119665;28;20031;-67
2023/01/09 11:02:58;;;;;;;9.53;2.30;;;;;;;16.00;49.30;99838.06;5095156;28;20048;-67
2023/01/09 11:05:27;;;;;;;13.70;2.27;;;;;;;15.13;50.73;99845.59;5090552;28;20120;-67
2023/01/09 11:08:20;;;;;;;11.70;3.23;;;;;;;15.68;50.38;99853.59;5099654;28;20383;-67
2023/01/09 11:10:49;;;;;;;12.02;2.08;;;;;;;16.79;47.80;99845.56;5101345;27;20043;-67
2023/01/09 11:13:47;;;;;;;16.17;2.20;;;;;;;16.13;48.78;99842.75;5113702;28;20031;-67
2023/01/09 11:16:18;;;;;;;11.40;1.97;;;;;;;15.92;49.38;99845.50;5111853;28;20045;-67
2023/01/09 11:18:51;;;;;;;12.60;2.63;;;;;;;15.67;50.05;99854.53;5106633;28;20080;-66
2023/01/09 11:21:34;;;;;;;;;;;;;;;16.28;49.20;99849.94;5076518;28;20364;-67
2023/01/09 11:24:24;;;;;;;10.95;2.10;;;;;;;16.14;49.15;99849.72;5094132;28;20404;-67
2023/01/09 11:27:22;;;;;;;22.87;3.37;;;;;;;16.97;47.56;99845.59;5100359;28;20541;-67
2023/01/09 11:30:26;;;;;;;9.97;2.67;;;;;;;15.18;52.42;99864.66;5109397;27;20045;-67
2023/01/09 11:32:53;;;;;;;15.03;2.10;;;;;;;15.61;50.43;99852.19;5107487;27;20023;-67
2023/01/09 11:35:26;;;;;;;12.70;2.07;;;;;;;15.91;50.81;99859.63;5094425;28;20024;-68
2023/01/09 11:38:15;;;;;;;12.27;2.42;;;;;;;16.32;49.08;99869.94;5113023;28;20019;-67
2023/01/09 11:40:48;;;;;;;13.17;2.30;;;;;;;16.35;49.29;99884.72;5093578;28;20019;-67
2023/01/09 11:43:13;;;;;;;;;;;;;;;16.46;48.46;99887.72;5106461;28;20027;-67
2023/01/09 11:45:46;;;;;;;14.93;2.50;;;;;;;16.58;48.60;99875.69;5113920;28;19931;-67
2023/01/09 11:48:39;;;;;;;13.77;2.50;;;;;;;17.29;47.77;99880.00;5095324;28;20039;-67
2023/01/09 11:51:16;;;;;;;13.10;1.92;;;;;;;17.00;47.30;99882.38;5113179;28;20493;-67
2023/01/09 11:53:55;;;;;;;16.13;3.07;;;;;;;16.08;49.47;99888.63;5112779;28;20099;-68
2023/01/09 11:56:21;;;;;;;10.93;2.40;;;;;;;16.19;49.75;99885.50;5113587;28;20032;-67